sensor_id;sensor_type;location;lat;lon;timestamp;pressure;altitude;pressure_sealevel;temperature;humidity
47742;BME280;33504;52.066;6.096;2022-12-07T00:00:12;101665.23;;;6.76;50.41
47742;BME280;33504;52.066;6.096;2022-12-07T00:02:40;101664.49;;;6.74;50.34
47742;BME280;33504;52.066;6.096;2022-12-07T00:05:07;101660.39;;;6.68;50.09
47742;BME280;33504;52.066;6.096;2022-12-07T00:07:35;101658.13;;;6.74;49.98
47742;BME280;33504;52.066;6.096;2022-12-07T00:10:02;101660.43;;;6.78;49.79
47742;BME280;33504;52.066;6.096;2022-12-07T00:12:29;101662.69;;;6.80;49.66
47742;BME280;33504;52.066;6.096;2022-12-07T00:14:56;101664.78;;;6.78;49.47
47742;BME280;33504;52.066;6.096;2022-12-07T00:17:23;101664.64;;;6.76;49.40
47742;BME280;33504;52.066;6.096;2022-12-07T00:19:49;101662.43;;;6.46;49.26
47742;BME280;33504;52.066;6.096;2022-12-07T00:22:16;101659.95;;;6.57;49.44
47742;BME280;33504;52.066;6.096;2022-12-07T00:24:43;101656.90;;;6.58;49.29
47742;BME280;33504;52.066;6.096;2022-12-07T00:27:10;101652.42;;;6.38;49.54
47742;BME280;33504;52.066;6.096;2022-12-07T00:29:37;101655.51;;;6.07;49.76
47742;BME280;33504;52.066;6.096;2022-12-07T00:32:04;101654.44;;;6.28;49.75
47742;BME280;33504;52.066;6.096;2022-12-07T00:34:31;101649.18;;;6.13;49.93
47742;BME280;33504;52.066;6.096;2022-12-07T00:36:58;101649.71;;;6.02;50.29
47742;BME280;33504;52.066;6.096;2022-12-07T00:39:25;101649.79;;;6.11;50.06
47742;BME280;33504;52.066;6.096;2022-12-07T00:41:52;101645.65;;;6.13;49.94
47742;BME280;33504;52.066;6.096;2022-12-07T00:44:19;101643.05;;;5.91;50.35
47742;BME280;33504;52.066;6.096;2022-12-07T00:46:46;101644.94;;;5.90;50.48
47742;BME280;33504;52.066;6.096;2022-12-07T00:49:13;101642.79;;;6.08;50.19
47742;BME280;33504;52.066;6.096;2022-12-07T00:51:40;101639.59;;;6.13;50.01
47742;BME280;33504;52.066;6.096;2022-12-07T00:54:07;101642.06;;;5.98;50.15
47742;BME280;33504;52.066;6.096;2022-12-07T00:56:34;101638.54;;;5.90;50.25
47742;BME280;33504;52.066;6.096;2022-12-07T00:59:03;101635.58;;;6.29;50.07
47742;BME280;33504;52.066;6.096;2022-12-07T01:01:32;101633.32;;;5.92;50.07
47742;BME280;33504;52.066;6.096;2022-12-07T01:03:59;101629.36;;;5.97;49.73
47742;BME280;33504;52.066;6.096;2022-12-07T01:06:27;101626.69;;;5.68;49.94
47742;BME280;33504;52.066;6.096;2022-12-07T01:08:55;101626.83;;;5.78;49.76
47742;BME280;33504;52.066;6.096;2022-12-07T01:11:24;101625.94;;;5.71;49.73
47742;BME280;33504;52.066;6.096;2022-12-07T01:13:53;101629.55;;;6.00;49.64
47742;BME280;33504;52.066;6.096;2022-12-07T01:16:23;101634.44;;;5.82;49.87
47742;BME280;33504;52.066;6.096;2022-12-07T01:18:51;101638.95;;;5.61;49.79
47742;BME280;33504;52.066;6.096;2022-12-07T01:21:21;101640.38;;;5.73;50.17
47742;BME280;33504;52.066;6.096;2022-12-07T01:23:49;101644.80;;;5.58;50.52
47742;BME280;33504;52.066;6.096;2022-12-07T01:26:18;101646.56;;;5.30;50.81
47742;BME280;33504;52.066;6.096;2022-12-07T01:28:46;101644.65;;;5.76;51.00
47742;BME280;33504;52.066;6.096;2022-12-07T01:31:15;101643.51;;;5.68;50.55
47742;BME280;33504;52.066;6.096;2022-12-07T01:33:43;101643.26;;;5.56;50.81
47742;BME280;33504;52.066;6.096;2022-12-07T01:36:14;101644.91;;;5.52;50.88
47742;BME280;33504;52.066;6.096;2022-12-07T01:38:42;101645.24;;;5.43;50.99
47742;BME280;33504;52.066;6.096;2022-12-07T01:41:10;101644.91;;;5.43;50.98
47742;BME280;33504;52.066;6.096;2022-12-07T01:44:11;101641.80;;;5.12;51.49
47742;BME280;33504;52.066;6.096;2022-12-07T01:46:39;101640.09;;;5.26;51.24
47742;BME280;33504;52.066;6.096;2022-12-07T01:49:10;101641.53;;;5.64;50.94
47742;BME280;33504;52.066;6.096;2022-12-07T01:51:40;101636.72;;;5.58;50.60
47742;BME280;33504;52.066;6.096;2022-12-07T01:54:10;101639.20;;;5.67;50.36
47742;BME280;33504;52.066;6.096;2022-12-07T01:56:40;101640.41;;;5.94;50.17
47742;BME280;33504;52.066;6.096;2022-12-07T01:59:09;101642.45;;;5.45;50.09
47742;BME280;33504;52.066;6.096;2022-12-07T02:01:37;101639.54;;;5.74;50.09
47742;BME280;33504;52.066;6.096;2022-12-07T02:04:06;101636.47;;;5.90;50.24
47742;BME280;33504;52.066;6.096;2022-12-07T02:06:33;101631.37;;;5.56;50.48
47742;BME280;33504;52.066;6.096;2022-12-07T02:09:02;101633.27;;;5.41;50.26
47742;BME280;33504;52.066;6.096;2022-12-07T02:11:28;101630.18;;;5.56;50.49
47742;BME280;33504;52.066;6.096;2022-12-07T02:13:55;101625.01;;;5.57;50.28
47742;BME280;33504;52.066;6.096;2022-12-07T02:16:31;101623.90;;;5.78;50.33
47742;BME280;33504;52.066;6.096;2022-12-07T02:19:19;101636.08;;;5.42;50.47
47742;BME280;33504;52.066;6.096;2022-12-07T02:21:52;101631.55;;;5.73;50.21
47742;BME280;33504;52.066;6.096;2022-12-07T02:24:40;101630.84;;;5.61;50.24
47742;BME280;33504;52.066;6.096;2022-12-07T02:27:27;101626.81;;;5.62;49.91
47742;BME280;33504;52.066;6.096;2022-12-07T02:29:59;101627.30;;;5.25;50.06
47742;BME280;33504;52.066;6.096;2022-12-07T02:32:35;101627.18;;;5.30;49.93
47742;BME280;33504;52.066;6.096;2022-12-07T02:35:09;101630.37;;;5.45;50.01
47742;BME280;33504;52.066;6.096;2022-12-07T02:37:41;101630.61;;;5.24;50.32
47742;BME280;33504;52.066;6.096;2022-12-07T02:40:14;101632.24;;;5.38;50.32
47742;BME280;33504;52.066;6.096;2022-12-07T02:42:46;101630.66;;;5.29;50.74
47742;BME280;33504;52.066;6.096;2022-12-07T02:45:18;101627.96;;;5.37;50.74
47742;BME280;33504;52.066;6.096;2022-12-07T02:47:49;101629.31;;;4.95;50.62
47742;BME280;33504;52.066;6.096;2022-12-07T02:50:18;101627.76;;;5.37;50.59
47742;BME280;33504;52.066;6.096;2022-12-07T02:52:46;101628.60;;;5.35;50.84
47742;BME280;33504;52.066;6.096;2022-12-07T02:55:15;101631.56;;;5.79;50.64
47742;BME280;33504;52.066;6.096;2022-12-07T02:57:55;101627.23;;;5.21;50.75
47742;BME280;33504;52.066;6.096;2022-12-07T03:00:31;101629.25;;;5.70;50.45
47742;BME280;33504;52.066;6.096;2022-12-07T03:03:08;101629.72;;;5.46;50.39
47742;BME280;33504;52.066;6.096;2022-12-07T03:05:48;101631.26;;;5.80;50.35
47742;BME280;33504;52.066;6.096;2022-12-07T03:08:23;101635.79;;;5.55;50.25
47742;BME280;33504;52.066;6.096;2022-12-07T03:10:58;101631.74;;;5.56;50.25
47742;BME280;33504;52.066;6.096;2022-12-07T03:13:30;101629.64;;;6.07;50.14
47742;BME280;33504;52.066;6.096;2022-12-07T03:16:05;101631.41;;;5.68;50.31
47742;BME280;33504;52.066;6.096;2022-12-07T03:18:42;101632.22;;;5.51;50.25
47742;BME280;33504;52.066;6.096;2022-12-07T03:21:18;101634.92;;;5.79;50.34
47742;BME280;33504;52.066;6.096;2022-12-07T03:23:51;101635.38;;;5.68;50.16
47742;BME280;33504;52.066;6.096;2022-12-07T03:26:24;101631.52;;;5.84;49.92
47742;BME280;33504;52.066;6.096;2022-12-07T03:28:55;101632.58;;;5.94;49.80
47742;BME280;33504;52.066;6.096;2022-12-07T03:31:28;101625.62;;;6.29;49.55
47742;BME280;33504;52.066;6.096;2022-12-07T03:34:01;101626.58;;;6.05;49.40
47742;BME280;33504;52.066;6.096;2022-12-07T03:36:33;101621.87;;;6.08;49.40
47742;BME280;33504;52.066;6.096;2022-12-07T03:39:07;101616.92;;;6.18;49.29
47742;BME280;33504;52.066;6.096;2022-12-07T03:41:40;101612.07;;;6.15;49.22
47742;BME280;33504;52.066;6.096;2022-12-07T03:44:07;101612.58;;;6.21;49.05
47742;BME280;33504;52.066;6.096;2022-12-07T03:46:39;101611.77;;;6.22;48.83
47742;BME280;33504;52.066;6.096;2022-12-07T03:49:13;101612.49;;;6.15;48.60
47742;BME280;33504;52.066;6.096;2022-12-07T03:51:46;101614.02;;;6.14;48.50
47742;BME280;33504;52.066;6.096;2022-12-07T03:54:21;101612.07;;;6.04;48.59
47742;BME280;33504;52.066;6.096;2022-12-07T03:56:52;101613.49;;;6.06;48.66
47742;BME280;33504;52.066;6.096;2022-12-07T03:59:21;101612.22;;;6.01;48.74
47742;BME280;33504;52.066;6.096;2022-12-07T04:01:53;101611.03;;;5.94;48.83
47742;BME280;33504;52.066;6.096;2022-12-07T04:04:21;101609.79;;;6.40;49.01
47742;BME280;33504;52.066;6.096;2022-12-07T04:06:47;101606.71;;;6.12;48.96
47742;BME280;33504;52.066;6.096;2022-12-07T04:09:15;101605.66;;;5.93;48.92
47742;BME280;33504;52.066;6.096;2022-12-07T04:11:42;101603.34;;;5.84;48.93
47742;BME280;33504;52.066;6.096;2022-12-07T04:14:10;101599.89;;;5.87;48.90
47742;BME280;33504;52.066;6.096;2022-12-07T04:16:37;101603.33;;;6.11;48.83
47742;BME280;33504;52.066;6.096;2022-12-07T04:19:04;101605.27;;;6.06;49.11
47742;BME280;33504;52.066;6.096;2022-12-07T04:21:31;101607.40;;;5.90;49.08
47742;BME280;33504;52.066;6.096;2022-12-07T04:23:57;101610.90;;;5.51;49.22
47742;BME280;33504;52.066;6.096;2022-12-07T04:26:24;101613.14;;;5.78;49.20
47742;BME280;33504;52.066;6.096;2022-12-07T04:28:51;101610.28;;;5.86;49.16
47742;BME280;33504;52.066;6.096;2022-12-07T04:31:18;101613.05;;;5.37;49.60
47742;BME280;33504;52.066;6.096;2022-12-07T04:33:45;101616.21;;;5.90;49.68
47742;BME280;33504;52.066;6.096;2022-12-07T04:36:12;101612.43;;;5.92;49.85
47742;BME280;33504;52.066;6.096;2022-12-07T04:38:39;101611.70;;;5.56;49.72
47742;BME280;33504;52.066;6.096;2022-12-07T04:41:07;101607.75;;;5.91;49.56
47742;BME280;33504;52.066;6.096;2022-12-07T04:43:35;101607.50;;;5.57;49.77
47742;BME280;33504;52.066;6.096;2022-12-07T04:46:03;101606.39;;;5.90;49.63
47742;BME280;33504;52.066;6.096;2022-12-07T04:48:30;101602.92;;;5.59;49.77
47742;BME280;33504;52.066;6.096;2022-12-07T04:50:57;101600.87;;;5.75;49.92
47742;BME280;33504;52.066;6.096;2022-12-07T04:53:24;101596.81;;;5.73;49.71
47742;BME280;33504;52.066;6.096;2022-12-07T04:55:51;101597.52;;;5.80;49.68
47742;BME280;33504;52.066;6.096;2022-12-07T04:58:18;101600.16;;;5.52;49.38
47742;BME280;33504;52.066;6.096;2022-12-07T05:00:45;101598.13;;;5.44;49.20
47742;BME280;33504;52.066;6.096;2022-12-07T05:03:12;101593.64;;;5.78;48.99
47742;BME280;33504;52.066;6.096;2022-12-07T05:05:40;101595.94;;;5.39;48.99
47742;BME280;33504;52.066;6.096;2022-12-07T05:08:08;101591.48;;;5.39;49.10
47742;BME280;33504;52.066;6.096;2022-12-07T05:10:35;101591.12;;;5.73;48.88
47742;BME280;33504;52.066;6.096;2022-12-07T05:13:02;101592.53;;;5.76;48.48
47742;BME280;33504;52.066;6.096;2022-12-07T05:15:29;101591.90;;;5.94;48.31
47742;BME280;33504;52.066;6.096;2022-12-07T05:17:56;101591.74;;;5.92;48.40
47742;BME280;33504;52.066;6.096;2022-12-07T05:20:22;101597.14;;;5.79;48.44
47742;BME280;33504;52.066;6.096;2022-12-07T05:22:49;101597.95;;;5.25;48.44
47742;BME280;33504;52.066;6.096;2022-12-07T05:25:16;101594.93;;;5.66;48.64
47742;BME280;33504;52.066;6.096;2022-12-07T05:27:43;101596.39;;;5.14;48.55
47742;BME280;33504;52.066;6.096;2022-12-07T05:30:11;101597.55;;;5.63;48.63
47742;BME280;33504;52.066;6.096;2022-12-07T05:32:38;101600.36;;;5.57;48.73
47742;BME280;33504;52.066;6.096;2022-12-07T05:35:06;101595.82;;;5.40;49.03
47742;BME280;33504;52.066;6.096;2022-12-07T05:37:33;101599.38;;;5.40;49.08
47742;BME280;33504;52.066;6.096;2022-12-07T05:40:00;101597.40;;;5.43;49.05
47742;BME280;33504;52.066;6.096;2022-12-07T05:42:27;101596.18;;;5.45;49.21
47742;BME280;33504;52.066;6.096;2022-12-07T05:44:54;101592.47;;;5.42;49.34
47742;BME280;33504;52.066;6.096;2022-12-07T05:47:21;101594.92;;;5.18;49.86
47742;BME280;33504;52.066;6.096;2022-12-07T05:49:48;101589.93;;;5.22;49.62
47742;BME280;33504;52.066;6.096;2022-12-07T05:52:15;101590.11;;;5.19;50.22
47742;BME280;33504;52.066;6.096;2022-12-07T05:54:42;101586.82;;;4.89;50.07
47742;BME280;33504;52.066;6.096;2022-12-07T05:57:09;101589.06;;;5.40;50.07
47742;BME280;33504;52.066;6.096;2022-12-07T05:59:36;101583.90;;;5.47;49.76
47742;BME280;33504;52.066;6.096;2022-12-07T06:02:05;101584.52;;;5.41;49.86
47742;BME280;33504;52.066;6.096;2022-12-07T06:04:35;101583.70;;;4.99;49.68
47742;BME280;33504;52.066;6.096;2022-12-07T06:07:02;101584.65;;;5.51;49.58
47742;BME280;33504;52.066;6.096;2022-12-07T06:09:30;101585.65;;;5.53;49.65
47742;BME280;33504;52.066;6.096;2022-12-07T06:11:58;101581.37;;;5.49;49.64
47742;BME280;33504;52.066;6.096;2022-12-07T06:14:26;101581.26;;;5.56;49.60
47742;BME280;33504;52.066;6.096;2022-12-07T06:16:53;101580.22;;;5.56;49.61
47742;BME280;33504;52.066;6.096;2022-12-07T06:19:20;101579.98;;;5.44;49.76
47742;BME280;33504;52.066;6.096;2022-12-07T06:21:47;101582.00;;;5.55;49.64
47742;BME280;33504;52.066;6.096;2022-12-07T06:24:16;101582.72;;;5.28;49.98
47742;BME280;33504;52.066;6.096;2022-12-07T06:26:43;101587.42;;;5.30;50.05
47742;BME280;33504;52.066;6.096;2022-12-07T06:29:10;101587.05;;;5.17;50.33
47742;BME280;33504;52.066;6.096;2022-12-07T06:31:39;101584.74;;;5.28;50.02
47742;BME280;33504;52.066;6.096;2022-12-07T06:34:10;101586.36;;;5.19;50.13
47742;BME280;33504;52.066;6.096;2022-12-07T06:36:37;101585.27;;;5.15;49.94
47742;BME280;33504;52.066;6.096;2022-12-07T06:39:05;101587.16;;;5.20;49.90
47742;BME280;33504;52.066;6.096;2022-12-07T06:41:33;101588.40;;;5.08;49.92
47742;BME280;33504;52.066;6.096;2022-12-07T06:44:00;101588.54;;;4.91;50.25
47742;BME280;33504;52.066;6.096;2022-12-07T06:46:27;101595.06;;;5.02;49.99
47742;BME280;33504;52.066;6.096;2022-12-07T06:48:53;101592.11;;;4.76;50.44
47742;BME280;33504;52.066;6.096;2022-12-07T06:51:20;101591.31;;;4.85;50.32
47742;BME280;33504;52.066;6.096;2022-12-07T06:53:48;101586.69;;;4.64;50.69
47742;BME280;33504;52.066;6.096;2022-12-07T06:56:15;101586.97;;;4.58;50.94
47742;BME280;33504;52.066;6.096;2022-12-07T06:58:41;101588.09;;;4.83;50.84
47742;BME280;33504;52.066;6.096;2022-12-07T07:01:09;101592.81;;;5.09;50.51
47742;BME280;33504;52.066;6.096;2022-12-07T07:03:37;101594.10;;;4.93;50.26
47742;BME280;33504;52.066;6.096;2022-12-07T07:06:06;101598.50;;;4.50;50.87
47742;BME280;33504;52.066;6.096;2022-12-07T07:08:34;101601.03;;;4.60;50.71
47742;BME280;33504;52.066;6.096;2022-12-07T07:11:01;101601.24;;;4.68;50.49
47742;BME280;33504;52.066;6.096;2022-12-07T07:13:29;101601.48;;;4.53;50.59
47742;BME280;33504;52.066;6.096;2022-12-07T07:15:57;101598.91;;;4.37;50.91
47742;BME280;33504;52.066;6.096;2022-12-07T07:18:24;101594.78;;;4.63;50.44
47742;BME280;33504;52.066;6.096;2022-12-07T07:20:52;101592.57;;;4.46;50.66
47742;BME280;33504;52.066;6.096;2022-12-07T07:23:19;101600.23;;;4.63;50.39
47742;BME280;33504;52.066;6.096;2022-12-07T07:25:47;101603.46;;;4.57;50.35
47742;BME280;33504;52.066;6.096;2022-12-07T07:28:15;101602.43;;;4.65;50.29
47742;BME280;33504;52.066;6.096;2022-12-07T07:30:42;101601.41;;;4.74;50.46
47742;BME280;33504;52.066;6.096;2022-12-07T07:33:10;101597.78;;;4.72;50.23
47742;BME280;33504;52.066;6.096;2022-12-07T07:35:37;101599.48;;;4.92;50.09
47742;BME280;33504;52.066;6.096;2022-12-07T07:38:04;101599.65;;;4.88;50.16
47742;BME280;33504;52.066;6.096;2022-12-07T07:40:31;101604.76;;;4.60;50.33
47742;BME280;33504;52.066;6.096;2022-12-07T07:42:58;101601.22;;;4.85;50.41
47742;BME280;33504;52.066;6.096;2022-12-07T07:45:26;101604.65;;;4.70;50.20
47742;BME280;33504;52.066;6.096;2022-12-07T07:47:54;101606.68;;;4.70;50.06
47742;BME280;33504;52.066;6.096;2022-12-07T07:50:21;101605.25;;;5.00;50.07
47742;BME280;33504;52.066;6.096;2022-12-07T07:52:48;101606.19;;;4.89;49.75
47742;BME280;33504;52.066;6.096;2022-12-07T07:55:15;101604.53;;;5.12;49.51
47742;BME280;33504;52.066;6.096;2022-12-07T07:57:42;101604.49;;;4.66;49.81
47742;BME280;33504;52.066;6.096;2022-12-07T08:00:12;101608.14;;;4.33;50.55
47742;BME280;33504;52.066;6.096;2022-12-07T08:02:40;101608.49;;;4.92;50.18
47742;BME280;33504;52.066;6.096;2022-12-07T08:05:07;101611.55;;;4.75;50.39
47742;BME280;33504;52.066;6.096;2022-12-07T08:07:34;101613.93;;;5.06;50.16
47742;BME280;33504;52.066;6.096;2022-12-07T08:10:01;101617.66;;;4.90;50.17
47742;BME280;33504;52.066;6.096;2022-12-07T08:12:29;101620.46;;;5.16;50.35
47742;BME280;33504;52.066;6.096;2022-12-07T08:14:56;101625.93;;;4.91;50.49
47742;BME280;33504;52.066;6.096;2022-12-07T08:17:23;101634.75;;;5.04;50.61
47742;BME280;33504;52.066;6.096;2022-12-07T08:19:49;101637.40;;;5.00;50.76
47742;BME280;33504;52.066;6.096;2022-12-07T08:22:16;101633.96;;;5.02;50.76
47742;BME280;33504;52.066;6.096;2022-12-07T08:24:43;101636.58;;;5.49;50.36
47742;BME280;33504;52.066;6.096;2022-12-07T08:27:10;101631.07;;;5.33;50.36
47742;BME280;33504;52.066;6.096;2022-12-07T08:29:37;101629.03;;;5.46;50.15
47742;BME280;33504;52.066;6.096;2022-12-07T08:32:04;101625.78;;;5.65;50.42
47742;BME280;33504;52.066;6.096;2022-12-07T08:34:31;101631.15;;;5.45;50.47
47742;BME280;33504;52.066;6.096;2022-12-07T08:36:59;101631.33;;;5.87;50.10
47742;BME280;33504;52.066;6.096;2022-12-07T08:39:26;101631.08;;;5.72;49.91
47742;BME280;33504;52.066;6.096;2022-12-07T08:41:53;101627.98;;;5.83;49.73
47742;BME280;33504;52.066;6.096;2022-12-07T08:44:20;101631.77;;;5.20;49.75
47742;BME280;33504;52.066;6.096;2022-12-07T08:46:50;101631.76;;;5.91;49.43
47742;BME280;33504;52.066;6.096;2022-12-07T08:49:21;101630.68;;;5.72;49.40
47742;BME280;33504;52.066;6.096;2022-12-07T08:51:51;101633.62;;;5.86;49.40
47742;BME280;33504;52.066;6.096;2022-12-07T08:54:18;101633.95;;;5.58;49.74
47742;BME280;33504;52.066;6.096;2022-12-07T08:56:46;101631.56;;;5.59;49.81
47742;BME280;33504;52.066;6.096;2022-12-07T08:59:15;101632.89;;;5.46;49.70
47742;BME280;33504;52.066;6.096;2022-12-07T09:01:42;101633.19;;;5.42;49.40
47742;BME280;33504;52.066;6.096;2022-12-07T09:04:09;101636.29;;;5.40;49.71
47742;BME280;33504;52.066;6.096;2022-12-07T09:06:36;101633.56;;;5.65;49.54
47742;BME280;33504;52.066;6.096;2022-12-07T09:09:04;101634.41;;;6.34;49.42
47742;BME280;33504;52.066;6.096;2022-12-07T09:11:31;101635.94;;;6.23;49.58
47742;BME280;33504;52.066;6.096;2022-12-07T09:13:58;101638.15;;;5.85;49.85
47742;BME280;33504;52.066;6.096;2022-12-07T09:16:25;101640.24;;;6.02;49.73
47742;BME280;33504;52.066;6.096;2022-12-07T09:18:52;101634.49;;;6.09;49.51
47742;BME280;33504;52.066;6.096;2022-12-07T09:21:19;101632.79;;;6.21;49.53
47742;BME280;33504;52.066;6.096;2022-12-07T09:23:46;101630.95;;;6.48;49.26
47742;BME280;33504;52.066;6.096;2022-12-07T09:26:13;101627.25;;;6.62;49.30
47742;BME280;33504;52.066;6.096;2022-12-07T09:28:40;101625.39;;;6.51;49.23
47742;BME280;33504;52.066;6.096;2022-12-07T09:31:08;101624.55;;;6.88;49.01
47742;BME280;33504;52.066;6.096;2022-12-07T09:33:35;101624.97;;;7.11;48.72
47742;BME280;33504;52.066;6.096;2022-12-07T09:36:03;101623.69;;;6.77;48.78
47742;BME280;33504;52.066;6.096;2022-12-07T09:38:30;101620.51;;;6.76;48.43
47742;BME280;33504;52.066;6.096;2022-12-07T09:40:57;101625.23;;;7.27;47.84
47742;BME280;33504;52.066;6.096;2022-12-07T09:43:25;101620.92;;;6.99;47.74
47742;BME280;33504;52.066;6.096;2022-12-07T09:45:54;101618.49;;;6.89;47.80
47742;BME280;33504;52.066;6.096;2022-12-07T09:48:28;101620.15;;;6.65;47.75
47742;BME280;33504;52.066;6.096;2022-12-07T09:50:58;101617.45;;;6.87;47.70
47742;BME280;33504;52.066;6.096;2022-12-07T09:53:28;101614.17;;;7.14;47.76
47742;BME280;33504;52.066;6.096;2022-12-07T09:55:56;101610.44;;;6.92;47.99
47742;BME280;33504;52.066;6.096;2022-12-07T09:58:26;101610.52;;;6.93;47.99
47742;BME280;33504;52.066;6.096;2022-12-07T10:00:55;101609.56;;;7.03;48.37
47742;BME280;33504;52.066;6.096;2022-12-07T10:03:23;101605.05;;;6.81;48.48
47742;BME280;33504;52.066;6.096;2022-12-07T10:05:51;101602.87;;;7.10;48.44
47742;BME280;33504;52.066;6.096;2022-12-07T10:08:19;101604.05;;;7.02;48.30
47742;BME280;33504;52.066;6.096;2022-12-07T10:10:50;101600.97;;;7.11;48.15
47742;BME280;33504;52.066;6.096;2022-12-07T10:13:20;101592.37;;;7.13;47.83
47742;BME280;33504;52.066;6.096;2022-12-07T10:15:50;101590.05;;;7.26;47.88
47742;BME280;33504;52.066;6.096;2022-12-07T10:18:21;101594.08;;;7.53;47.70
47742;BME280;33504;52.066;6.096;2022-12-07T10:21:03;101593.03;;;7.68;47.50
47742;BME280;33504;52.066;6.096;2022-12-07T10:23:31;101595.50;;;7.77;47.02
47742;BME280;33504;52.066;6.096;2022-12-07T10:25:58;101592.76;;;7.65;46.83
47742;BME280;33504;52.066;6.096;2022-12-07T10:28:33;101591.20;;;8.19;46.97
47742;BME280;33504;52.066;6.096;2022-12-07T10:31:15;101589.28;;;9.89;44.56
47742;BME280;33504;52.066;6.096;2022-12-07T10:33:50;101580.51;;;10.07;42.37
47742;BME280;33504;52.066;6.096;2022-12-07T10:36:21;101583.70;;;11.27;40.63
47742;BME280;33504;52.066;6.096;2022-12-07T10:38:51;101588.21;;;12.15;39.00
47742;BME280;33504;52.066;6.096;2022-12-07T10:41:19;101583.02;;;12.86;37.59
47742;BME280;33504;52.066;6.096;2022-12-07T10:43:49;101575.46;;;13.19;36.69
47742;BME280;33504;52.066;6.096;2022-12-07T10:46:59;101578.87;;;13.54;36.76
47742;BME280;33504;52.066;6.096;2022-12-07T10:50:52;101576.71;;;12.87;38.05
47742;BME280;33504;52.066;6.096;2022-12-07T10:53:31;101571.53;;;12.72;37.72
47742;BME280;33504;52.066;6.096;2022-12-07T10:56:18;101568.81;;;12.24;37.46
47742;BME280;33504;52.066;6.096;2022-12-07T10:59:00;101564.63;;;11.71;38.06
47742;BME280;33504;52.066;6.096;2022-12-07T11:01:33;101563.20;;;11.17;38.82
47742;BME280;33504;52.066;6.096;2022-12-07T11:04:22;101560.69;;;10.89;39.28
47742;BME280;33504;52.066;6.096;2022-12-07T11:06:57;101559.69;;;10.27;40.18
47742;BME280;33504;52.066;6.096;2022-12-07T11:09:47;101561.81;;;10.14;41.17
47742;BME280;33504;52.066;6.096;2022-12-07T11:12:28;101562.59;;;9.62;41.94
47742;BME280;33504;52.066;6.096;2022-12-07T11:15:01;101561.95;;;9.46;42.25
47742;BME280;33504;52.066;6.096;2022-12-07T11:17:36;101564.22;;;9.24;42.55
47742;BME280;33504;52.066;6.096;2022-12-07T11:20:18;101553.80;;;9.49;43.07
47742;BME280;33504;52.066;6.096;2022-12-07T11:22:59;101547.80;;;10.21;43.00
47742;BME280;33504;52.066;6.096;2022-12-07T11:25:32;101545.82;;;11.05;41.32
47742;BME280;33504;52.066;6.096;2022-12-07T11:28:13;101539.37;;;11.84;39.62
47742;BME280;33504;52.066;6.096;2022-12-07T11:30:48;101533.63;;;13.45;37.61
47742;BME280;33504;52.066;6.096;2022-12-07T11:33:22;101529.16;;;14.32;35.81
47742;BME280;33504;52.066;6.096;2022-12-07T11:36:01;101522.91;;;14.84;33.82
47742;BME280;33504;52.066;6.096;2022-12-07T11:38:35;101525.36;;;14.97;33.17
47742;BME280;33504;52.066;6.096;2022-12-07T11:41:05;101521.20;;;14.96;32.95
47742;BME280;33504;52.066;6.096;2022-12-07T11:43:34;101519.06;;;15.69;32.31
47742;BME280;33504;52.066;6.096;2022-12-07T11:46:05;101517.58;;;15.87;31.81
47742;BME280;33504;52.066;6.096;2022-12-07T11:48:40;101514.59;;;15.86;31.46
47742;BME280;33504;52.066;6.096;2022-12-07T11:51:11;101513.27;;;15.78;31.47
47742;BME280;33504;52.066;6.096;2022-12-07T11:53:41;101508.52;;;15.51;31.45
47742;BME280;33504;52.066;6.096;2022-12-07T11:56:13;101510.50;;;14.91;32.04
47742;BME280;33504;52.066;6.096;2022-12-07T11:58:48;101506.22;;;14.10;32.45
47742;BME280;33504;52.066;6.096;2022-12-07T12:01:28;101502.39;;;13.68;33.37
47742;BME280;33504;52.066;6.096;2022-12-07T12:04:06;101503.94;;;13.19;34.35
47742;BME280;33504;52.066;6.096;2022-12-07T12:06:34;101500.11;;;12.96;35.31
47742;BME280;33504;52.066;6.096;2022-12-07T12:09:04;101494.65;;;12.39;35.70
47742;BME280;33504;52.066;6.096;2022-12-07T12:11:46;101497.47;;;11.85;36.39
47742;BME280;33504;52.066;6.096;2022-12-07T12:14:27;101493.70;;;11.68;37.14
47742;BME280;33504;52.066;6.096;2022-12-07T12:17:17;101498.26;;;11.14;37.90
47742;BME280;33504;52.066;6.096;2022-12-07T12:20:00;101499.12;;;11.22;38.43
47742;BME280;33504;52.066;6.096;2022-12-07T12:22:33;101497.05;;;10.81;38.73
47742;BME280;33504;52.066;6.096;2022-12-07T12:25:05;101493.88;;;10.62;38.88
47742;BME280;33504;52.066;6.096;2022-12-07T12:27:35;101487.22;;;10.58;38.86
47742;BME280;33504;52.066;6.096;2022-12-07T12:30:06;101486.41;;;10.79;38.96
47742;BME280;33504;52.066;6.096;2022-12-07T12:32:39;101485.04;;;10.77;39.10
47742;BME280;33504;52.066;6.096;2022-12-07T12:35:29;101482.32;;;10.94;39.15
47742;BME280;33504;52.066;6.096;2022-12-07T12:38:27;101481.97;;;10.90;39.25
47742;BME280;33504;52.066;6.096;2022-12-07T12:40:55;101477.53;;;10.84;39.48
47742;BME280;33504;52.066;6.096;2022-12-07T12:43:53;101474.14;;;10.27;39.45
47742;BME280;33504;52.066;6.096;2022-12-07T12:46:53;101473.87;;;11.10;39.35
47742;BME280;33504;52.066;6.096;2022-12-07T12:49:38;101473.76;;;10.67;39.66
47742;BME280;33504;52.066;6.096;2022-12-07T12:52:53;101473.78;;;11.36;40.00
47742;BME280;33504;52.066;6.096;2022-12-07T12:55:30;101470.60;;;10.62;39.64
47742;BME280;33504;52.066;6.096;2022-12-07T12:58:44;101466.13;;;11.30;39.48
47742;BME280;33504;52.066;6.096;2022-12-07T13:01:45;101465.10;;;11.51;39.70
47742;BME280;33504;52.066;6.096;2022-12-07T13:04:38;101460.69;;;10.82;39.63
47742;BME280;33504;52.066;6.096;2022-12-07T13:07:11;101455.77;;;10.91;39.46
47742;BME280;33504;52.066;6.096;2022-12-07T13:09:43;101450.33;;;10.90;39.51
47742;BME280;33504;52.066;6.096;2022-12-07T13:12:14;101447.61;;;11.00;39.22
47742;BME280;33504;52.066;6.096;2022-12-07T13:14:52;101444.48;;;11.35;38.44
47742;BME280;33504;52.066;6.096;2022-12-07T13:18:00;101440.80;;;12.22;38.45